Home > Products > Valid Products > MTR

000
SAUS43 KDTX 230354
MTRP58
METAR KP58 230351Z AUTO 13013KT 02/M01 A2993 RMK AO1 SLP144
T00171011





000
SAUS43 KDTX 230254
MTRP58
METAR KP58 230251Z AUTO 13011KT 02/M01 A2995 RMK AO1 SLP151
T00171011 55008





000
SAUS43 KDTX 230152
MTRP58
METAR KP58 230151Z AUTO 13012KT 02/M01 A2995 RMK AO1 SLP151
T00171011





000
SAUS43 KDTX 230054
MTRP58
METAR KP58 230051Z AUTO 13013KT 02/M01 A2996 RMK AO1 SLP157
T00171011





000
SAUS43 KDTX 222354
MTRP58
METAR KP58 222351Z AUTO 12012KT 01/M02 A2997 RMK AO1 SLP160
T00111017 10011 20006 55007





000
SAUS43 KDTX 222254
MTRP58
METAR KP58 222251Z AUTO 11015KT 01/M02 A2996 RMK AO1 SLP157
T00111022





000
SAUS43 KDTX 222152
MTRP58
METAR KP58 222151Z AUTO 13010KT 01/M03 A3000 RMK AO1 SLP169
T00061028





000
SAUS43 KDTX 222054
MTRP58
METAR KP58 222051Z AUTO 13009KT 01/M03 A3000 RMK AO1 SLP168
T00061033 55016





000
SAUS43 KDTX 221954
MTRP58
METAR KP58 221951Z AUTO 12011KT 01/M03 A2999 RMK AO1 SLP164
T00061028





000
SAUS43 KDTX 221854
MTRP58
METAR KP58 221851Z AUTO 13005KT 01/M04 A3001 RMK AO1 SLP172
T00111039





000
SAUS43 KDTX 221754
MTRP58
METAR KP58 221751Z AUTO 16005KT 01/M04 A3004 RMK AO1 SLP184
T00111039 10011 21011 58021





000
SAUS43 KDTX 221654
MTRP58
METAR KP58 221651Z AUTO 15006KT 01/M04 A3007 RMK AO1 SLP194
T00061039





000
SAUS43 KDTX 221554
MTRP58
METAR KP58 221551Z AUTO 15006KT 01/M04 A3010 RMK AO1 SLP203
T00061044





000
SAUS43 KDTX 221554
MTRP58
METAR KP58 221551Z AUTO 15006KT 01/M04 A3010 RMK AO1 SLP203
T00061044





000
SAUS43 KDTX 221453
MTRP58
METAR KP58 221451Z AUTO 15006KT 01/M03 A3011 RMK AO1 SLP206
T00061033 58006





000
SAUS43 KDTX 221353
MTRP58
METAR KP58 221351Z AUTO 17003KT M01/M04 A3012 RMK AO1 SLP209
T10061039





000
SAUS43 KDTX 221353
MTRP58
METAR KP58 221351Z AUTO 17003KT M01/M04 A3012 RMK AO1 SLP209
T10061039





000
SAUS43 KDTX 221253
MTRP58
METAR KP58 221251Z AUTO 00000KT M01/M04 A3012 RMK AO1 SLP212
T10111044





000
SAUS43 KDTX 221153
MTRP58
METAR KP58 221151Z AUTO 16005KT M01/M04 A3013 RMK AO1 SLP213
T10111044 11006 21017 55001





000
SAUS43 KDTX 221054
MTRP58
METAR KP58 221051Z AUTO 17004KT M01/M04 A3012 RMK AO1 SLP211
T10111044





000
SAUS43 KDTX 221054
MTRP58
METAR KP58 221051Z AUTO 17004KT M01/M04 A3012 RMK AO1 SLP211
T10111044





000
SAUS43 KDTX 220952
MTRP58
METAR KP58 220951Z AUTO 15004KT M01/M04 A3012 RMK AO1 SLP211
T10111044





000
SAUS43 KDTX 220854
MTRP58
METAR KP58 220851Z AUTO 16006KT M01/M04 A3013 RMK AO1 SLP213
T10061044 58010





000
SAUS43 KDTX 220754
MTRP58
METAR KP58 220751Z AUTO 17008KT M01/M05 A3015 RMK AO1 SLP220
T10061050





000
SAUS43 KDTX 220754
MTRP58
METAR KP58 220751Z AUTO 17008KT M01/M05 A3015 RMK AO1 SLP220
T10061050





000
SAUS43 KDTX 220652
MTRP58
METAR KP58 220651Z AUTO 16006KT M01/M04 A3016 RMK AO1 SLP223
T10061044





000
SAUS43 KDTX 220553
MTRP58
METAR KP58 220551Z AUTO 17007KT M01/M05 A3016 RMK AO1 SLP223
T10061050 10000 21006 58012





000
SAUS43 KDTX 220453
MTRP58
METAR KP58 220451Z AUTO 17005KT 00/M04 A3018 RMK AO1 SLP232
T00001044 400111061





000
SAUS43 KDTX 220354
MTRP58
METAR KP58 220351Z AUTO 17005KT 00/M04 A3019 RMK AO1 SLP234
T00001044





000
SAUS43 KDTX 220254
MTRP58
METAR KP58 220251Z AUTO 16004KT 00/M04 A3019 RMK AO1 SLP236
T00001044 58007





000
SAUS43 KDTX 220152
MTRP58
METAR KP58 220151Z AUTO 16004KT 00/M04 A3020 RMK AO1 SLP240
T00001044





000
SAUS43 KDTX 220152
MTRP58
METAR KP58 220151Z AUTO 16004KT 00/M04 A3020 RMK AO1 SLP240
T00001044





000
SAUS43 KDTX 220054
MTRP58
METAR KP58 220051Z AUTO 00000KT 00/M04 A3021 RMK AO1 SLP244
T00001044





000
SAUS43 KDTX 220054
MTRP58
METAR KP58 220051Z AUTO 00000KT 00/M04 A3021 RMK AO1 SLP244
T00001044





000
SAUS43 KDTX 212353
MTRP58
METAR KP58 212351Z AUTO 16004KT 00/M04 A3021 RMK AO1 SLP245
T00001039 10011 20000 58001





000
SAUS43 KDTX 212353
MTRP58
METAR KP58 212351Z AUTO 16004KT 00/M04 A3021 RMK AO1 SLP245
T00001039 10011 20000 58001





000
SAUS43 KDTX 212253
MTRP58
METAR KP58 212251Z AUTO 15003KT 00/M04 A3023 RMK AO1 SLP249
T00001039





000
SAUS43 KDTX 212154
MTRP58
METAR KP58 212151Z AUTO 16004KT 00/M04 A3022 RMK AO1 SLP247
T00001044





000
SAUS43 KDTX 212053
MTRP58
METAR KP58 212051Z AUTO 16004KT 01/M04 A3022 RMK AO1 SLP246
T00061044 55005





000
SAUS43 KDTX 211954
MTRP58
METAR KP58 211951Z AUTO VRB04KT 01/M04 A3021 RMK AO1 SLP244
T00061044





000
SAUS43 KDTX 211954
MTRP58
METAR KP58 211951Z AUTO VRB04KT 01/M04 A3021 RMK AO1 SLP244
T00061044





000
SAUS43 KDTX 211852
MTRP58
METAR KP58 211851Z AUTO VRB06KT 01/M04 A3022 RMK AO1 SLP246
T00061044





000
SAUS43 KDTX 211754
MTRP58
METAR KP58 211751Z AUTO 17006KT 00/M04 A3023 RMK AO1 SLP252
T00001044 10000 21061 58016





000
SAUS43 KDTX 211654
MTRP58
METAR KP58 211651Z AUTO VRB03KT M01/M05 A3026 RMK AO1 SLP262
T10111050





000
SAUS43 KDTX 211553
MTRP58
METAR KP58 211551Z AUTO 00000KT M02/M05 A3028 RMK AO1 SLP269
T10221050





000
SAUS43 KDTX 211452
MTRP58
METAR KP58 211451Z AUTO 00000KT M03/M06 A3028 RMK AO1 SLP268
T10281056 51002





000
SAUS43 KDTX 211354
MTRP58
METAR KP58 211351Z AUTO 00000KT M03/M06 A3028 RMK AO1 SLP268
T10331061





000
SAUS43 KDTX 211354
MTRP58
METAR KP58 211351Z AUTO 00000KT M03/M06 A3028 RMK AO1 SLP268
T10331061





000
SAUS43 KDTX 211254
MTRP58
METAR KP58 211251Z AUTO 00000KT M04/M07 A3028 RMK AO1 SLP269
T10441067





000
SAUS43 KDTX 211254
MTRP58
METAR KP58 211251Z AUTO 00000KT M04/M07 A3028 RMK AO1 SLP269
T10441067





000
SAUS43 KDTX 211154
MTRP58
METAR KP58 211151Z AUTO 19003KT M06/M08 A3028 RMK AO1 SLP267
T10611078 11050 21061 50002





000
SAUS43 KDTX 211154
MTRP58
METAR KP58 211151Z AUTO 19003KT M06/M08 A3028 RMK AO1 SLP267
T10611078 11050 21061 50002





000
SAUS43 KDTX 211054
MTRP58
METAR KP58 211051Z AUTO 22005KT M06/M08 A3028 RMK AO1 SLP268
T10561078





000
SAUS43 KDTX 211054
MTRP58
METAR KP58 211051Z AUTO 22005KT M06/M08 A3028 RMK AO1 SLP268
T10561078





000
SAUS43 KDTX 210952
MTRP58
METAR KP58 210951Z AUTO 23005KT M06/M08 A3027 RMK AO1 SLP263
T10561078





000
SAUS43 KDTX 210952
MTRP58
METAR KP58 210951Z AUTO 23005KT M06/M08 A3027 RMK AO1 SLP263
T10561078





000
SAUS43 KDTX 210952
MTRP58
METAR KP58 210951Z AUTO 23005KT M06/M08 A3027 RMK AO1 SLP263
T10561078





000
SAUS43 KDTX 210853
MTRP58
METAR KP58 210851Z AUTO 22004KT M06/M08 A3027 RMK AO1 SLP264
T10561078 50002





000
SAUS43 KDTX 210752
MTRP58
METAR KP58 210751Z AUTO 23004KT M05/M08 A3027 RMK AO1 SLP266
T10501078





000
SAUS43 KDTX 210654
MTRP58
METAR KP58 210651Z AUTO 23004KT M06/M08 A3027 RMK AO1 SLP263
T10561078





000
SAUS43 KDTX 210552
MTRP58
METAR KP58 210551Z AUTO 22003KT M06/M08 A3026 RMK AO1 SLP261
T10561078 11022 21056 58001





000
SAUS43 KDTX 210452
MTRP58
METAR KP58 210451Z AUTO 22003KT M06/M08 A3026 RMK AO1 SLP260
T10561078 410061056





000
SAUS43 KDTX 210452
MTRP58
METAR KP58 210451Z AUTO 22003KT M06/M08 A3026 RMK AO1 SLP260
T10561078 410061056





000
SAUS43 KDTX 210353
MTRP58
METAR KP58 210351Z AUTO 00000KT M05/M07 A3027 RMK AO1 SLP264
T10501067





000
SAUS43 KDTX 210353
MTRP58
METAR KP58 210351Z AUTO 00000KT M05/M07 A3027 RMK AO1 SLP264
T10501067





000
SAUS43 KDTX 210253
MTRP58
METAR KP58 210251Z AUTO 00000KT M04/M07 A3026 RMK AO1 SLP262
T10441072 58004





000
SAUS43 KDTX 210154
MTRP58
METAR KP58 210151Z AUTO 00000KT M04/M07 A3027 RMK AO1 SLP265
T10391067





000
SAUS43 KDTX 210054
MTRP58
METAR KP58 210051Z AUTO 00000KT M03/M07 A3028 RMK AO1 SLP268
T10331067





000
SAUS43 KDTX 202354
MTRP58
METAR KP58 202351Z AUTO VRB03KT M02/M07 A3028 RMK AO1 SLP266
T10221067 11006 21022 53008





000
SAUS43 KDTX 202252
MTRP58
METAR KP58 202251Z AUTO 29003KT M02/M06 A3027 RMK AO1 SLP263
T10171061





000
SAUS43 KDTX 202154
MTRP58
METAR KP58 202151Z AUTO 26003KT M01/M07 A3026 RMK AO1 SLP259
T10111067





000
SAUS43 KDTX 202054
MTRP58
METAR KP58 202051Z AUTO 26003KT M01/M07 A3025 RMK AO1 SLP257
T10111067 55003





000
SAUS43 KDTX 201952
MTRP58
METAR KP58 201951Z AUTO 00000KT M01/M07 A3024 RMK AO1 SLP254
T10061072





000
SAUS43 KDTX 201852
MTRP58
METAR KP58 201851Z AUTO 00000KT M01/M07 A3025 RMK AO1 SLP257
T10061067





000
SAUS43 KDTX 201753
MTRP58
METAR KP58 201751Z AUTO 00000KT M01/M06 A3026 RMK AO1 SLP261
T10111056 11006 21039 58012





000
SAUS43 KDTX 201657 COR
MTRP58
METAR KP58 201651Z AUTO 32005KT M01/M06 A3027 RMK AO1 SLP265
T10061061





000
SAUS43 KDTX 201654 COR
MTRP58
METAR KP58 201651Z AUTO 32005KT M01/M06 A3027 RMK AO1 SLP265
T10061061





000
SAUS43 KDTX 201553
MTRP58
METAR KP58 201551Z AUTO 23004KT M01/M07 A3029 RMK AO1 SLP272
T10111067





000
SAUS43 KDTX 201452
MTRP58
METAR KP58 201451Z AUTO VRB04KT M02/M07 A3030 RMK AO1 SLP274
T10221072 50002





000
SAUS43 KDTX 201354
MTRP58
METAR KP58 201351Z AUTO 23005KT M04/M08 A3030 RMK AO1 SLP276
T10391078





000
SAUS43 KDTX 201252
MTRP58
METAR KP58 201251Z AUTO 23005KT M03/M07 A3029 RMK AO1 SLP271
T10331067





000
SAUS43 KDTX 201154
MTRP58
METAR KP58 201151Z AUTO 24005KT M03/M07 A3029 RMK AO1 SLP272
T10331067 11028 21050 53006





000
SAUS43 KDTX 201056 COR
MTRP58
METAR KP58 201051Z AUTO 00000KT M03/M07 A3029 RMK AO1 SLP269
T10281067





000
SAUS43 KDTX 201054 COR
MTRP58
METAR KP58 201051Z AUTO 00000KT M03/M07 A3029 RMK AO1 SLP269
T10281067





000
SAUS43 KDTX 200953
MTRP58
METAR KP58 200951Z AUTO 00000KT M03/M07 A3027 RMK AO1 SLP264
T10281067





000
SAUS43 KDTX 200853
MTRP58
METAR KP58 200851Z AUTO 24004KT M03/M06 A3028 RMK AO1 SLP265
T10281061 51009





000
SAUS43 KDTX 200752
MTRP58
METAR KP58 200751Z AUTO 24003KT M03/M07 A3027 RMK AO1 SLP263
T10331067





000
SAUS43 KDTX 200752
MTRP58
METAR KP58 200751Z AUTO 24003KT M03/M07 A3027 RMK AO1 SLP263
T10331067





000
SAUS43 KDTX 200653
MTRP58
METAR KP58 200651Z AUTO 22004KT M04/M07 A3026 RMK AO1 SLP260
T10441067





000
SAUS43 KDTX 200553
MTRP58
METAR KP58 200551Z AUTO 22003KT M05/M07 A3025 RMK AO1 SLP257
T10501067 11022 21056 58015





000
SAUS43 KDTX 200453
MTRP58
METAR KP58 200451Z AUTO 00000KT M05/M07 A3026 RMK AO1 SLP261
T10501072 410061050





    US Dept of Commerce
    National Oceanic and Atmospheric Administration
    National Weather Service
    1325 East West Highway
    Silver Spring, MD 20910
    Page Author: NWS Internet Services Team
Disclaimer
Information Quality
Credits
Glossary
Privacy Policy
Freedom of Information Act (FOIA)
About Us
Career Opportunities